Time;durP1;ratioP1;P1;durP2;ratioP2;P2;SDS_P1;SDS_P2;PMS_P1;PMS_P2;Temp;Humidity;BMP_temperature;BMP_pressure;BME280_temperature;BME280_humidity;BME280_pressure;Samples;Min_cycle;Max_cycle;Signal;HPM_P1;HPM_P2
2022/01/17 00:00:48;;;;;;;13.18;6.60;;;;;;;-143.53;100.00;58366.03;2101138;28;20195;-61
2022/01/17 00:01:50;;;;;;;12.77;5.95;;;;;;;-143.53;100.00;58366.03;2100936;28;20187;-61
2022/01/17 00:02:53;;;;;;;11.88;5.00;;;;;;;-143.53;100.00;58366.03;2100958;28;20543;-61
2022/01/17 00:03:55;;;;;;;10.38;5.68;;;;;;;-143.53;100.00;58366.03;2101299;28;20204;-61
2022/01/17 00:04:56;;;;;;;10.82;5.50;;;;;;;-143.53;100.00;58366.03;2099158;28;20694;-61
2022/01/17 00:05:58;;;;;;;12.40;5.95;;;;;;;-143.53;100.00;58366.03;2100737;28;20233;-61
2022/01/17 00:06:59;;;;;;;12.40;6.45;;;;;;;-143.53;100.00;58366.03;2101729;28;20199;-60
2022/01/17 00:08:01;;;;;;;10.35;6.22;;;;;;;-143.53;100.00;58366.03;2101605;28;20626;-61
2022/01/17 00:09:03;;;;;;;13.10;6.15;;;;;;;-143.53;100.00;58366.03;2100609;28;20215;-61
2022/01/17 00:10:06;;;;;;;10.52;6.05;;;;;;;-143.53;100.00;58366.03;2100857;28;20215;-61
2022/01/17 00:11:11;;;;;;;10.32;6.25;;;;;;;-143.53;100.00;58366.03;2101101;28;20187;-61
2022/01/17 00:12:13;;;;;;;12.50;6.63;;;;;;;-143.53;100.00;58366.03;2100829;28;20202;-61
2022/01/17 00:13:23;;;;;;;10.70;5.60;;;;;;;-143.53;100.00;58366.03;2101501;28;20757;-61
2022/01/17 00:14:32;;;;;;;10.20;5.90;;;;;;;-143.53;100.00;58366.03;2100052;28;20226;-61
2022/01/17 00:15:46;;;;;;;9.57;5.30;;;;;;;-143.53;100.00;58366.03;2101153;28;20196;-61
2022/01/17 00:17:03;;;;;;;9.13;5.75;;;;;;;-143.53;100.00;58366.03;2101411;28;20221;-61
2022/01/17 00:20:26;;;;;;;12.45;5.43;;;;;;;-143.53;100.00;58366.03;2101267;28;20195;-61
2022/01/17 00:21:28;;;;;;;11.35;6.20;;;;;;;-143.53;100.00;58366.03;2101331;28;20212;-61
2022/01/17 00:22:29;;;;;;;12.25;6.15;;;;;;;-143.53;100.00;58366.03;2101059;28;20198;-61
2022/01/17 00:23:31;;;;;;;11.75;5.15;;;;;;;-143.53;100.00;58366.03;2101307;28;20199;-61
2022/01/17 00:24:33;;;;;;;13.40;6.40;;;;;;;-143.53;100.00;58366.03;2100946;28;20571;-61
2022/01/17 00:25:35;;;;;;;10.02;6.32;;;;;;;-143.53;100.00;58366.03;2100056;28;20203;-61
2022/01/17 00:26:36;;;;;;;16.80;6.68;;;;;;;-143.53;100.00;58366.03;2101493;28;20194;-60
2022/01/17 00:27:38;;;;;;;11.40;7.15;;;;;;;-143.53;100.00;58366.03;2101391;28;20227;-60
2022/01/17 00:28:39;;;;;;;10.35;5.55;;;;;;;-143.53;100.00;58366.03;2100502;28;20199;-60
2022/01/17 00:29:40;;;;;;;11.93;5.47;;;;;;;-143.53;100.00;58366.03;2099944;28;20216;-61
2022/01/17 00:30:42;;;;;;;14.18;6.68;;;;;;;-143.53;100.00;58366.03;2100790;28;20199;-61
2022/01/17 00:31:44;;;;;;;11.13;5.30;;;;;;;-143.53;100.00;58366.03;2100431;28;20357;-60
2022/01/17 00:32:45;;;;;;;10.27;6.03;;;;;;;-143.53;100.00;58366.03;2101283;28;20274;-60
2022/01/17 00:33:47;;;;;;;11.02;5.70;;;;;;;-143.53;100.00;58366.03;2102651;28;20203;-61
2022/01/17 00:34:48;;;;;;;13.10;5.82;;;;;;;-143.53;100.00;58366.03;2102131;28;20218;-61
2022/01/17 00:35:50;;;;;;;13.63;7.03;;;;;;;-143.53;100.00;58366.03;2102832;28;20202;-61
2022/01/17 00:36:52;;;;;;;11.90;6.72;;;;;;;-143.53;100.00;58366.03;2102606;28;20199;-61
2022/01/17 00:37:53;;;;;;;9.82;5.20;;;;;;;-143.53;100.00;58366.03;2101587;28;20210;-61
2022/01/17 00:38:54;;;;;;;13.98;5.78;;;;;;;-143.53;100.00;58366.03;2103223;28;20648;-60
2022/01/17 00:39:56;;;;;;;9.93;6.07;;;;;;;-143.53;100.00;58366.03;2102596;28;20231;-60
2022/01/17 00:40:58;;;;;;;13.43;6.13;;;;;;;-143.53;100.00;58366.03;2093776;28;20203;-61
2022/01/17 00:41:59;;;;;;;10.55;6.82;;;;;;;-143.53;100.00;58366.03;2093928;28;20241;-60
2022/01/17 00:43:01;;;;;;;15.00;8.55;;;;;;;-143.53;100.00;58366.03;2102922;28;20201;-61
2022/01/17 00:44:03;;;;;;;17.92;8.30;;;;;;;-143.53;100.00;58366.03;2101390;28;20206;-61
2022/01/17 00:45:07;;;;;;;13.32;7.57;;;;;;;-143.53;100.00;58366.03;2102032;28;20408;-61
2022/01/17 00:46:09;;;;;;;12.73;8.25;;;;;;;-143.53;100.00;58366.03;2102843;28;20187;-60
2022/01/17 00:47:11;;;;;;;18.50;8.80;;;;;;;-143.53;100.00;58366.03;2103385;28;20200;-61
2022/01/17 00:48:12;;;;;;;17.30;10.00;;;;;;;-143.53;100.00;58366.03;2102879;28;20191;-61
2022/01/17 00:49:14;;;;;;;19.77;10.77;;;;;;;-143.53;100.00;58366.03;2101820;28;20713;-61
2022/01/17 00:50:15;;;;;;;17.80;9.68;;;;;;;-143.53;100.00;58366.03;2102533;28;20195;-60
2022/01/17 00:51:18;;;;;;;19.80;10.02;;;;;;;-143.53;100.00;58366.03;2103096;28;20199;-60
2022/01/17 00:52:19;;;;;;;20.33;10.10;;;;;;;-143.53;100.00;58366.03;2102534;28;20202;-61
2022/01/17 00:53:22;;;;;;;23.35;10.48;;;;;;;-143.53;100.00;58366.03;2102479;28;20202;-61
2022/01/17 00:54:23;;;;;;;24.05;10.65;;;;;;;-143.53;100.00;58366.03;2102304;28;20257;-61
2022/01/17 00:55:25;;;;;;;17.33;10.57;;;;;;;-143.53;100.00;58366.03;2102574;28;20187;-61
2022/01/17 00:56:26;;;;;;;22.90;10.88;;;;;;;-143.53;100.00;58366.03;2102823;28;20199;-61
2022/01/17 00:57:28;;;;;;;22.50;11.63;;;;;;;-143.53;100.00;58366.03;2101885;28;20204;-60
2022/01/17 00:58:29;;;;;;;21.33;10.73;;;;;;;-143.53;100.00;58366.03;2102534;28;20214;-60
2022/01/17 00:59:32;;;;;;;22.95;11.02;;;;;;;-143.53;100.00;58366.03;2101736;28;20682;-61
2022/01/17 01:00:34;;;;;;;23.08;11.18;;;;;;;-143.53;100.00;58366.03;2101141;28;20197;-60
2022/01/17 01:01:36;;;;;;;22.80;12.35;;;;;;;-143.53;100.00;58366.03;2102746;28;20245;-60
2022/01/17 01:02:38;;;;;;;21.63;11.30;;;;;;;-143.53;100.00;58366.03;2102676;28;20222;-60
2022/01/17 01:03:40;;;;;;;25.65;12.07;;;;;;;-143.53;100.00;58366.03;2102394;28;20194;-61
2022/01/17 01:04:41;;;;;;;21.60;10.63;;;;;;;-143.53;100.00;58366.03;2102151;28;20238;-60
2022/01/17 01:05:43;;;;;;;26.25;12.10;;;;;;;-143.53;100.00;58366.03;2102010;28;20821;-61
2022/01/17 01:06:45;;;;;;;25.95;13.38;;;;;;;-143.53;100.00;58366.03;2102773;28;20526;-60
2022/01/17 01:07:46;;;;;;;24.23;11.70;;;;;;;-143.53;100.00;58366.03;2102214;28;20199;-61
2022/01/17 01:08:48;;;;;;;28.00;13.07;;;;;;;-143.53;100.00;58366.03;2102945;28;20519;-60
2022/01/17 01:10:03;;;;;;;27.50;14.30;;;;;;;-143.53;100.00;58366.03;2102794;28;20219;-61
2022/01/17 01:11:05;;;;;;;23.13;12.85;;;;;;;-143.53;100.00;58366.03;2102589;28;20301;-60
2022/01/17 01:12:07;;;;;;;27.40;13.50;;;;;;;-143.53;100.00;58366.03;2102806;28;20198;-61
2022/01/17 01:13:09;;;;;;;33.05;14.10;;;;;;;-143.53;100.00;58366.03;2103252;28;20542;-60
2022/01/17 01:14:10;;;;;;;32.55;13.30;;;;;;;-143.53;100.00;58366.03;2101114;28;20228;-61
2022/01/17 01:15:19;;;;;;;27.77;13.00;;;;;;;-143.53;100.00;58366.03;2102051;28;20200;-61
2022/01/17 01:16:29;;;;;;;29.30;13.15;;;;;;;-143.53;100.00;58366.03;2101680;28;20196;-61
2022/01/17 01:17:47;;;;;;;32.17;14.48;;;;;;;-143.53;100.00;58366.03;2102123;28;20207;-60
2022/01/17 01:28:20;;;;;;;27.10;13.73;;;;;;;-143.53;100.00;58366.03;2072239;28;20204;-61
2022/01/17 01:29:22;;;;;;;29.00;13.85;;;;;;;-143.53;100.00;58366.03;2071847;28;20232;-61
2022/01/17 01:30:26;;;;;;;24.92;12.80;;;;;;;-143.53;100.00;58366.03;2069858;28;20198;-60
2022/01/17 01:31:41;;;;;;;25.02;13.60;;;;;;;-143.53;100.00;58366.03;2085392;28;20200;-60
2022/01/17 01:32:48;;;;;;;32.45;15.05;;;;;;;-143.53;100.00;58366.03;2086006;28;20700;-61
2022/01/17 01:33:54;;;;;;;27.95;14.93;;;;;;;-143.53;100.00;58366.03;2085889;28;20196;-60
2022/01/17 01:34:59;;;;;;;29.50;14.13;;;;;;;-143.53;100.00;58366.03;2085024;28;20228;-61
2022/01/17 01:36:34;;;;;;;32.88;13.98;;;;;;;-143.53;100.00;58366.03;2085529;28;20200;-60
2022/01/17 01:37:28;;;;;;;28.45;14.70;;;;;;;-143.53;100.00;58366.03;2084461;28;20213;-60
2022/01/17 01:38:30;;;;;;;28.42;14.13;;;;;;;-143.53;100.00;58366.03;2083026;28;20208;-60
2022/01/17 01:39:33;;;;;;;27.48;13.90;;;;;;;-143.53;100.00;58366.03;2085093;28;20225;-60
2022/01/17 01:40:35;;;;;;;33.92;15.23;;;;;;;-143.53;100.00;58366.03;2085806;28;20201;-59
2022/01/17 01:41:43;;;;;;;29.40;13.20;;;;;;;-143.53;100.00;58366.03;2085371;28;20204;-59
2022/01/17 01:42:46;;;;;;;31.50;15.52;;;;;;;-143.53;100.00;58366.03;2084166;28;20196;-59
2022/01/17 01:43:47;;;;;;;34.75;16.63;;;;;;;-143.53;100.00;58366.03;2083929;28;20581;-59
2022/01/17 01:44:52;;;;;;;34.63;15.45;;;;;;;-143.53;100.00;58366.03;2085072;28;20622;-59
2022/01/17 01:45:58;;;;;;;27.30;14.10;;;;;;;-143.53;100.00;58366.03;2084766;28;20271;-59
2022/01/17 01:46:59;;;;;;;32.35;13.57;;;;;;;-143.53;100.00;58366.03;2085735;28;20200;-60
2022/01/17 01:48:01;;;;;;;31.75;15.35;;;;;;;-143.53;100.00;58366.03;2085710;28;20196;-59
2022/01/17 01:49:03;;;;;;;26.23;13.30;;;;;;;-143.53;100.00;58366.03;2084252;28;20567;-59
2022/01/17 01:50:06;;;;;;;34.42;14.63;;;;;;;-143.53;100.00;58366.03;2085134;28;20208;-59
2022/01/17 01:51:09;;;;;;;33.10;14.68;;;;;;;-143.53;100.00;58366.03;2085855;28;20264;-59
2022/01/17 01:52:10;;;;;;;28.05;14.90;;;;;;;-143.53;100.00;58366.03;2085080;28;20185;-59
2022/01/17 01:53:12;;;;;;;33.08;14.65;;;;;;;-143.53;100.00;58366.03;2084976;28;20201;-59
2022/01/17 01:54:15;;;;;;;31.73;15.02;;;;;;;-143.53;100.00;58366.03;2085360;28;20305;-59
2022/01/17 01:55:21;;;;;;;32.15;14.43;;;;;;;-143.53;100.00;58366.03;2084605;28;20549;-59
2022/01/17 01:56:22;;;;;;;25.77;13.32;;;;;;;-143.53;100.00;58366.03;2084832;28;20210;-59
2022/01/17 01:57:24;;;;;;;21.63;13.00;;;;;;;-143.53;100.00;58366.03;2083482;28;20696;-60
2022/01/17 01:58:26;;;;;;;28.25;14.13;;;;;;;-143.53;100.00;58366.03;2084493;28;20220;-59
2022/01/17 01:59:28;;;;;;;26.48;13.60;;;;;;;-143.53;100.00;58366.03;2084620;28;20273;-59
2022/01/17 02:00:29;;;;;;;25.35;13.52;;;;;;;-143.53;100.00;58366.03;2085316;28;20197;-59
2022/01/17 02:01:32;;;;;;;33.20;15.60;;;;;;;-143.53;100.00;58366.03;2085550;28;20239;-59
2022/01/17 02:02:35;;;;;;;37.83;16.52;;;;;;;-143.53;100.00;58366.03;2085386;28;20212;-59
2022/01/17 02:03:36;;;;;;;29.75;14.68;;;;;;;-143.53;100.00;58366.03;2085550;28;20682;-59
2022/01/17 02:04:38;;;;;;;33.38;15.63;;;;;;;-143.53;100.00;58366.03;2085291;28;20700;-59
2022/01/17 02:05:40;;;;;;;23.40;12.13;;;;;;;-143.53;100.00;58366.03;2085821;28;20666;-59
2022/01/17 02:06:42;;;;;;;22.77;12.00;;;;;;;-143.53;100.00;58366.03;2084807;28;20201;-60
2022/01/17 02:07:45;;;;;;;24.17;11.95;;;;;;;-143.53;100.00;58366.03;2084613;28;20200;-59
2022/01/17 02:08:47;;;;;;;22.58;12.52;;;;;;;-143.53;100.00;58366.03;2084536;28;20196;-60
2022/01/17 02:09:48;;;;;;;31.75;15.10;;;;;;;-143.53;100.00;58366.03;2085396;28;20227;-59
2022/01/17 02:10:49;;;;;;;30.23;14.20;;;;;;;-143.53;100.00;58366.03;2084917;28;20208;-59
2022/01/17 02:11:52;;;;;;;25.95;12.13;;;;;;;-143.53;100.00;58366.03;2084771;28;20524;-60
2022/01/17 02:12:53;;;;;;;26.00;12.65;;;;;;;-143.53;100.00;58366.03;2085694;28;20616;-59
2022/01/17 02:13:55;;;;;;;26.45;12.45;;;;;;;-143.53;100.00;58366.03;2085572;28;20216;-59
2022/01/17 02:14:56;;;;;;;29.83;13.52;;;;;;;-143.53;100.00;58366.03;2083036;28;21029;-60
2022/01/17 02:16:09;;;;;;;21.90;11.15;;;;;;;-143.53;100.00;58366.03;2085210;28;20201;-59
2022/01/17 02:17:10;;;;;;;25.27;11.80;;;;;;;-143.53;100.00;58366.03;2085244;28;20196;-59
2022/01/17 02:18:18;;;;;;;18.50;10.20;;;;;;;-143.53;100.00;58366.03;2085106;28;20252;-59
2022/01/17 02:19:24;;;;;;;23.23;11.75;;;;;;;-143.53;100.00;58366.03;2083383;28;20211;-59
2022/01/17 02:20:40;;;;;;;18.95;10.18;;;;;;;-143.53;100.00;58366.03;2086527;28;20193;-59
2022/01/17 02:21:47;;;;;;;18.52;10.70;;;;;;;-143.53;100.00;58366.03;2101880;28;20195;-59
2022/01/17 02:22:51;;;;;;;17.55;10.23;;;;;;;-143.53;100.00;58366.03;2101819;28;20514;-59
2022/01/17 02:23:53;;;;;;;18.02;9.80;;;;;;;-143.53;100.00;58366.03;2100602;28;20199;-59
2022/01/17 02:24:54;;;;;;;20.48;10.82;;;;;;;-143.53;100.00;58366.03;2101007;28;20227;-59
2022/01/17 02:25:56;;;;;;;21.40;11.43;;;;;;;-143.53;100.00;58366.03;2102148;28;20199;-59
2022/01/17 02:26:57;;;;;;;23.02;10.73;;;;;;;-143.53;100.00;58366.03;2102187;28;20199;-59
2022/01/17 02:27:59;;;;;;;24.42;10.63;;;;;;;-143.53;100.00;58366.03;2101652;28;20200;-59
2022/01/17 02:29:00;;;;;;;22.48;11.50;;;;;;;-143.53;100.00;58366.03;2101223;28;20191;-59
2022/01/17 02:30:04;;;;;;;21.25;10.95;;;;;;;-143.53;100.00;58366.03;2101774;28;20195;-59
2022/01/17 02:31:06;;;;;;;25.95;11.10;;;;;;;-143.53;100.00;58366.03;2100669;28;20551;-59
2022/01/17 02:32:08;;;;;;;21.02;12.23;;;;;;;-143.53;100.00;58366.03;2100544;28;20195;-59
2022/01/17 02:33:10;;;;;;;21.67;11.75;;;;;;;-143.53;100.00;58366.03;2099835;28;20195;-59
2022/01/17 02:34:12;;;;;;;28.35;11.60;;;;;;;-143.53;100.00;58366.03;2100761;28;20196;-60
2022/01/17 02:35:20;;;;;;;23.08;12.95;;;;;;;-143.53;100.00;58366.03;2101729;28;20676;-60
2022/01/17 02:36:22;;;;;;;21.70;11.82;;;;;;;-143.53;100.00;58366.03;2101681;28;20196;-60
2022/01/17 02:37:24;;;;;;;23.92;11.90;;;;;;;-143.53;100.00;58366.03;2101794;28;20229;-59
2022/01/17 02:38:25;;;;;;;26.73;12.05;;;;;;;-143.53;100.00;58366.03;2100192;28;20192;-59
2022/01/17 02:39:27;;;;;;;22.10;11.30;;;;;;;-143.53;100.00;58366.03;2102244;28;20690;-59
2022/01/17 02:40:28;;;;;;;23.27;11.43;;;;;;;-143.53;100.00;58366.03;2101708;28;20206;-59
2022/01/17 02:41:31;;;;;;;24.38;11.23;;;;;;;-143.53;100.00;58366.03;2101720;28;20198;-59
2022/01/17 02:42:35;;;;;;;21.50;11.57;;;;;;;-143.53;100.00;58366.03;2102312;28;20206;-60
2022/01/17 02:43:37;;;;;;;24.10;11.30;;;;;;;-143.53;100.00;58366.03;2101021;28;20211;-60
2022/01/17 02:44:44;;;;;;;22.58;11.57;;;;;;;-143.53;100.00;58366.03;2101492;28;20222;-59
2022/01/17 02:46:54;;;;;;;20.33;10.73;;;;;;;-143.53;100.00;58366.03;2101644;28;20677;-59
2022/01/17 02:47:56;;;;;;;24.65;13.15;;;;;;;-143.53;100.00;58366.03;2102133;28;20195;-59
2022/01/17 02:49:00;;;;;;;22.55;10.95;;;;;;;-143.53;100.00;58366.03;2102419;28;20200;-59
2022/01/17 02:50:01;;;;;;;21.13;11.32;;;;;;;-143.53;100.00;58366.03;2101491;28;20223;-59
2022/01/17 02:51:03;;;;;;;24.52;10.18;;;;;;;-143.53;100.00;58366.03;2101211;28;20195;-60
2022/01/17 02:52:05;;;;;;;20.67;11.43;;;;;;;-143.53;100.00;58366.03;2100261;28;20238;-60
2022/01/17 02:53:09;;;;;;;26.00;12.07;;;;;;;-143.53;100.00;58366.03;2101480;28;20214;-59
2022/01/17 02:54:10;;;;;;;30.42;13.40;;;;;;;-143.53;100.00;58366.03;2101195;28;20195;-59
2022/01/17 02:55:12;;;;;;;20.63;11.10;;;;;;;-143.53;100.00;58366.03;2100802;28;20196;-60
2022/01/17 02:56:13;;;;;;;22.17;11.63;;;;;;;-143.53;100.00;58366.03;2100852;28;20831;-59
2022/01/17 02:57:15;;;;;;;18.25;10.30;;;;;;;-143.53;100.00;58366.03;2093351;28;20200;-60
2022/01/17 02:58:19;;;;;;;24.38;10.68;;;;;;;-143.53;100.00;58366.03;2091101;28;20207;-59
2022/01/17 02:59:21;;;;;;;28.38;11.60;;;;;;;-143.53;100.00;58366.03;2101151;28;20279;-60
2022/01/17 03:00:24;;;;;;;21.75;10.10;;;;;;;-143.53;100.00;58366.03;2092625;28;20220;-60
2022/01/17 03:01:55;;;;;;;19.73;10.18;;;;;;;-143.53;100.00;58366.03;2097163;28;20180;-59
2022/01/17 03:02:57;;;;;;;20.40;10.40;;;;;;;-143.53;100.00;58366.03;2101538;28;20202;-59
2022/01/17 03:03:59;;;;;;;18.48;9.65;;;;;;;-143.53;100.00;58366.03;2101354;28;20202;-59
2022/01/17 03:05:00;;;;;;;21.00;9.60;;;;;;;-143.53;100.00;58366.03;2101559;28;20865;-59
2022/01/17 11:30:01;;;;;;;2.28;1.70;;;;;;;-143.53;100.00;58366.03;2099128;28;20227;-59
2022/01/17 11:31:06;;;;;;;3.97;2.00;;;;;;;-143.53;100.00;58366.03;2101327;28;20764;-58
2022/01/17 11:32:08;;;;;;;4.15;2.40;;;;;;;-143.53;100.00;58366.03;2100132;28;20744;-58
2022/01/17 11:33:11;;;;;;;4.18;2.10;;;;;;;-143.53;100.00;58366.03;2101752;28;20233;-58
2022/01/17 11:34:14;;;;;;;4.97;2.67;;;;;;;-143.53;100.00;58366.03;2100843;28;20219;-58
2022/01/17 11:35:18;;;;;;;5.53;2.10;;;;;;;-143.53;100.00;58366.03;2100944;28;20209;-58
2022/01/17 11:36:19;;;;;;;3.90;1.92;;;;;;;-143.53;100.00;58366.03;2101039;28;20196;-58
2022/01/17 11:37:22;;;;;;;3.17;2.58;;;;;;;-143.53;100.00;58366.03;2101489;28;20218;-58
2022/01/17 11:38:30;;;;;;;4.40;2.78;;;;;;;-143.53;100.00;58366.03;2100877;28;20195;-58
2022/01/17 11:39:32;;;;;;;6.50;2.50;;;;;;;-143.53;100.00;58366.03;2100509;28;20227;-58
2022/01/17 11:40:37;;;;;;;3.70;2.65;;;;;;;-143.53;100.00;58366.03;2101151;28;20768;-58
2022/01/17 11:41:39;;;;;;;3.97;2.78;;;;;;;-143.53;100.00;58366.03;2101349;28;20201;-58
2022/01/17 11:42:49;;;;;;;5.60;3.05;;;;;;;-143.53;100.00;58366.03;2091850;28;20198;-58
2022/01/17 11:44:05;;;;;;;5.80;2.92;;;;;;;-143.53;100.00;58366.03;2093398;28;20200;-58
2022/01/17 11:45:22;;;;;;;5.80;3.28;;;;;;;-143.53;100.00;58366.03;2101300;28;20223;-58
2022/01/17 11:46:27;;;;;;;7.57;3.55;;;;;;;-143.53;100.00;58366.03;2100485;28;20203;-58
2022/01/17 11:47:47;;;;;;;5.90;4.32;;;;;;;-143.53;100.00;58366.03;2101264;28;20200;-58
2022/01/17 11:49:00;;;;;;;13.63;5.95;;;;;;;-143.53;100.00;58366.03;2101393;28;20238;-58
2022/01/17 11:50:27;;;;;;;5.55;3.05;;;;;;;-143.53;100.00;58366.03;2100374;28;20210;-57
2022/01/17 11:51:55;;;;;;;5.40;3.42;;;;;;;-143.53;100.00;58366.03;2100549;28;20200;-57
2022/01/17 11:53:11;;;;;;;4.38;2.85;;;;;;;-143.53;100.00;58366.03;2097165;28;20224;-58
2022/01/17 11:54:19;;;;;;;5.63;3.60;;;;;;;-143.53;100.00;58366.03;2100675;28;20829;-57
2022/01/17 11:55:46;;;;;;;5.55;3.97;;;;;;;-143.53;100.00;58366.03;2099696;28;20195;-57
2022/01/17 11:56:53;;;;;;;4.88;3.33;;;;;;;-143.53;100.00;58366.03;2100922;28;20208;-58
2022/01/17 11:58:29;;;;;;;5.28;3.30;;;;;;;-143.53;100.00;58366.03;2101359;28;20229;-58
2022/01/17 11:59:32;;;;;;;6.85;3.60;;;;;;;-143.53;100.00;58366.03;2094401;28;20238;-57
2022/01/17 12:00:33;;;;;;;3.70;2.97;;;;;;;-143.53;100.00;58366.03;2101364;28;20235;-57
2022/01/17 12:01:35;;;;;;;4.75;4.05;;;;;;;-143.53;100.00;58366.03;2100680;28;20265;-57
2022/01/17 12:02:37;;;;;;;5.82;3.60;;;;;;;-143.53;100.00;58366.03;2100675;28;20199;-57
2022/01/17 12:03:43;;;;;;;5.93;3.63;;;;;;;-143.53;100.00;58366.03;2098725;28;20206;-58
2022/01/17 12:05:02;;;;;;;4.85;3.42;;;;;;;-143.53;100.00;58366.03;2100842;28;20260;-57
2022/01/17 12:06:16;;;;;;;6.63;4.35;;;;;;;-143.53;100.00;58366.03;2098807;28;20767;-57
2022/01/17 12:07:20;;;;;;;8.38;4.25;;;;;;;-143.53;100.00;58366.03;2100349;28;20202;-58
2022/01/17 12:08:24;;;;;;;8.60;4.00;;;;;;;-143.53;100.00;58366.03;2100003;28;20199;-58
2022/01/17 12:09:27;;;;;;;5.85;3.80;;;;;;;-143.53;100.00;58366.03;2099831;28;20575;-58
2022/01/17 12:10:39;;;;;;;5.45;3.67;;;;;;;-143.53;100.00;58366.03;2101689;28;20556;-57
2022/01/17 12:11:41;;;;;;;12.55;6.07;;;;;;;-143.53;100.00;58366.03;2101201;28;20196;-57
2022/01/17 12:13:03;;;;;;;13.20;5.57;;;;;;;-143.53;100.00;58366.03;2101179;28;20195;-57
2022/01/17 12:14:21;;;;;;;11.55;5.35;;;;;;;-143.53;100.00;58366.03;2099422;28;20636;-57
2022/01/17 12:15:24;;;;;;;4.63;3.35;;;;;;;-143.53;100.00;58366.03;2100822;28;20196;-58
2022/01/17 12:16:29;;;;;;;6.07;3.60;;;;;;;-143.53;100.00;58366.03;2101735;28;20200;-58
2022/01/17 12:17:35;;;;;;;5.60;3.55;;;;;;;-143.53;100.00;58366.03;2101290;28;20197;-57
2022/01/17 12:18:43;;;;;;;6.93;3.60;;;;;;;-143.53;100.00;58366.03;2100662;28;20210;-58
2022/01/17 12:20:03;;;;;;;7.80;3.92;;;;;;;-143.53;100.00;58366.03;2099908;28;20230;-58
2022/01/17 12:21:23;;;;;;;4.72;3.92;;;;;;;-143.53;100.00;58366.03;2100550;28;20195;-58
2022/01/17 12:22:24;;;;;;;3.75;2.80;;;;;;;-143.53;100.00;58366.03;2101389;28;20195;-58
2022/01/17 12:23:27;;;;;;;6.88;2.90;;;;;;;-143.53;100.00;58366.03;2101388;28;20198;-58
2022/01/17 12:24:31;;;;;;;5.28;3.30;;;;;;;-143.53;100.00;58366.03;2099780;28;20229;-58
2022/01/17 12:25:34;;;;;;;7.88;3.90;;;;;;;-143.53;100.00;58366.03;2099428;28;20253;-57
2022/01/17 12:26:36;;;;;;;4.18;2.60;;;;;;;-143.53;100.00;58366.03;2101392;28;20205;-58
2022/01/17 12:27:38;;;;;;;5.82;2.80;;;;;;;-143.53;100.00;58366.03;2102604;28;20552;-58
2022/01/17 12:28:57;;;;;;;3.95;2.90;;;;;;;-143.53;100.00;58366.03;2103288;28;20198;-58
2022/01/17 12:30:10;;;;;;;5.90;2.83;;;;;;;-143.53;100.00;58366.03;2102695;28;20222;-58
2022/01/17 12:31:11;;;;;;;5.53;3.30;;;;;;;-143.53;100.00;58366.03;2102377;28;20675;-58
2022/01/17 12:32:25;;;;;;;5.18;3.65;;;;;;;-143.53;100.00;58366.03;2104466;28;20643;-57
2022/01/17 12:33:34;;;;;;;3.90;2.65;;;;;;;-143.53;100.00;58366.03;2102840;28;20206;-58
2022/01/17 12:34:41;;;;;;;4.88;3.42;;;;;;;-143.53;100.00;58366.03;2103159;28;20229;-58
2022/01/17 12:35:46;;;;;;;5.65;3.10;;;;;;;-143.53;100.00;58366.03;2102969;28;20698;-58
2022/01/17 12:36:48;;;;;;;5.63;2.60;;;;;;;-143.53;100.00;58366.03;2104034;28;20219;-58
2022/01/17 12:37:52;;;;;;;3.97;2.55;;;;;;;-143.53;100.00;58366.03;2103471;28;20195;-58
2022/01/17 12:39:11;;;;;;;3.92;2.95;;;;;;;-143.53;100.00;58366.03;2101986;28;20191;-58
2022/01/17 12:40:12;;;;;;;5.10;3.22;;;;;;;-143.53;100.00;58366.03;2103572;28;20233;-58
2022/01/17 12:41:34;;;;;;;4.60;2.75;;;;;;;-143.53;100.00;58366.03;2094814;28;20196;-57
2022/01/17 12:42:59;;;;;;;4.57;3.20;;;;;;;-143.53;100.00;58366.03;2096607;28;20605;-57
2022/01/17 12:44:28;;;;;;;6.60;2.90;;;;;;;-143.53;100.00;58366.03;2103306;28;20191;-58
2022/01/17 12:46:05;;;;;;;7.88;2.45;;;;;;;-143.53;100.00;58366.03;2102355;28;20222;-57
2022/01/17 12:47:07;;;;;;;3.80;2.42;;;;;;;-143.53;100.00;58366.03;2053115;28;20207;-58
2022/01/17 12:48:30;;;;;;;4.18;2.75;;;;;;;-143.53;100.00;58366.03;2103038;28;20650;-58
2022/01/17 12:49:32;;;;;;;4.68;3.00;;;;;;;-143.53;100.00;58366.03;2103534;28;20218;-58
2022/01/17 12:50:36;;;;;;;4.32;2.88;;;;;;;-143.53;100.00;58366.03;2103909;28;20187;-57
2022/01/17 12:51:46;;;;;;;4.53;3.25;;;;;;;-143.53;100.00;58366.03;2101498;28;20196;-58
2022/01/17 12:52:50;;;;;;;4.55;2.70;;;;;;;-143.53;100.00;58366.03;2102811;28;20200;-58
2022/01/17 12:53:53;;;;;;;3.08;2.20;;;;;;;-143.53;100.00;58366.03;2103776;28;20672;-58
2022/01/17 12:54:55;;;;;;;3.80;2.25;;;;;;;-143.53;100.00;58366.03;2102497;28;20215;-58
2022/01/17 12:55:59;;;;;;;4.18;2.63;;;;;;;-143.53;100.00;58366.03;2103566;28;20199;-58
2022/01/17 12:57:01;;;;;;;4.13;2.60;;;;;;;-143.53;100.00;58366.03;2103822;28;20195;-57
2022/01/17 12:58:22;;;;;;;5.28;2.63;;;;;;;-143.53;100.00;58366.03;2103507;28;20207;-58
2022/01/17 12:59:25;;;;;;;4.13;2.55;;;;;;;-143.53;100.00;58366.03;2102427;28;20218;-58
2022/01/17 13:00:27;;;;;;;8.10;3.80;;;;;;;-143.53;100.00;58366.03;2103469;28;20743;-58
2022/01/17 13:01:30;;;;;;;6.30;3.15;;;;;;;-143.53;100.00;58366.03;2103072;28;20210;-59
2022/01/17 13:02:42;;;;;;;5.03;2.95;;;;;;;-143.53;100.00;58366.03;2102793;28;20226;-58
2022/01/17 13:03:46;;;;;;;6.65;2.85;;;;;;;-143.53;100.00;58366.03;2103424;28;20199;-58
2022/01/17 13:04:49;;;;;;;3.53;2.30;;;;;;;-143.53;100.00;58366.03;2101989;27;20227;-58
2022/01/17 13:05:53;;;;;;;7.70;2.92;;;;;;;-143.53;100.00;58366.03;2094799;28;20199;-58
2022/01/17 13:06:54;;;;;;;3.45;2.38;;;;;;;-143.53;100.00;58366.03;2093679;28;20204;-58
2022/01/17 13:08:00;;;;;;;7.10;2.60;;;;;;;-143.53;100.00;58366.03;2102903;28;20198;-58
2022/01/17 13:09:10;;;;;;;6.45;2.63;;;;;;;-143.53;100.00;58366.03;2103292;27;20286;-59
2022/01/17 13:10:11;;;;;;;3.40;2.50;;;;;;;-143.53;100.00;58366.03;2101761;28;20302;-58
2022/01/17 13:11:15;;;;;;;3.78;2.30;;;;;;;-143.53;100.00;58366.03;2103395;28;20188;-57
2022/01/17 13:12:17;;;;;;;5.47;2.78;;;;;;;-143.53;100.00;58366.03;2103673;28;20218;-57
2022/01/17 13:13:19;;;;;;;4.75;2.53;;;;;;;-143.53;100.00;58366.03;2103567;28;20634;-57
2022/01/17 13:14:23;;;;;;;4.13;2.60;;;;;;;-143.53;100.00;58366.03;2101478;28;20200;-58
2022/01/17 13:15:25;;;;;;;3.03;2.17;;;;;;;-143.53;100.00;58366.03;2103855;28;20223;-58
2022/01/17 13:16:28;;;;;;;3.45;2.42;;;;;;;-143.53;100.00;58366.03;2103536;28;20194;-57
2022/01/17 13:17:32;;;;;;;4.80;2.45;;;;;;;-143.53;100.00;58366.03;2103573;28;20243;-58
2022/01/17 13:18:33;;;;;;;6.35;3.05;;;;;;;-143.53;100.00;58366.03;2104120;28;20207;-58
2022/01/17 13:19:36;;;;;;;3.95;2.58;;;;;;;-143.53;100.00;58366.03;2102191;28;20220;-58
2022/01/17 13:20:37;;;;;;;4.80;2.20;;;;;;;-143.53;100.00;58366.03;2104147;28;20223;-57
2022/01/17 13:21:42;;;;;;;3.90;2.20;;;;;;;-143.53;100.00;58366.03;2103857;28;20558;-58
2022/01/17 13:22:56;;;;;;;5.38;2.35;;;;;;;-143.53;100.00;58366.03;2104147;28;20558;-58
2022/01/17 13:24:13;;;;;;;5.65;2.42;;;;;;;-143.53;100.00;58366.03;2103712;28;20198;-62
2022/01/17 13:25:15;;;;;;;3.17;1.80;;;;;;;-143.53;100.00;58366.03;2101949;28;20218;-62
2022/01/17 13:26:21;;;;;;;2.83;2.13;;;;;;;-143.53;100.00;58366.03;2102648;28;20241;-62
2022/01/17 13:27:22;;;;;;;4.40;1.90;;;;;;;-143.53;100.00;58366.03;2103679;28;20680;-62
2022/01/17 13:28:24;;;;;;;4.10;2.50;;;;;;;-143.53;100.00;58366.03;2102273;28;20194;-62
2022/01/17 13:29:26;;;;;;;4.93;2.47;;;;;;;-143.53;100.00;58366.03;2101190;28;20214;-62
2022/01/17 13:30:34;;;;;;;4.13;2.75;;;;;;;-143.53;100.00;58366.03;2103192;28;20230;-62